sensor_id;sensor_type;location;lat;lon;timestamp;pressure;altitude;pressure_sealevel;temperature;humidity
43878;BME280;29815;48.184;11.268;2024-03-25T00:02:13;94798.59;;;3.13;100.00
43878;BME280;29815;48.184;11.268;2024-03-25T00:04:40;94791.97;;;3.16;100.00
43878;BME280;29815;48.184;11.268;2024-03-25T00:07:09;94802.69;;;3.04;100.00
43878;BME280;29815;48.184;11.268;2024-03-25T00:09:36;94796.66;;;3.09;100.00
43878;BME280;29815;48.184;11.268;2024-03-25T00:12:05;94799.22;;;3.03;100.00
43878;BME280;29815;48.184;11.268;2024-03-25T00:14:33;94792.28;;;3.02;100.00
43878;BME280;29815;48.184;11.268;2024-03-25T00:17:01;94793.34;;;3.01;100.00
43878;BME280;29815;48.184;11.268;2024-03-25T00:19:30;94796.78;;;3.02;100.00
43878;BME280;29815;48.184;11.268;2024-03-25T00:21:58;94792.00;;;2.99;100.00
43878;BME280;29815;48.184;11.268;2024-03-25T00:24:26;94789.00;;;2.95;100.00
43878;BME280;29815;48.184;11.268;2024-03-25T00:26:54;94786.81;;;2.92;100.00
43878;BME280;29815;48.184;11.268;2024-03-25T00:29:21;94798.81;;;2.95;100.00
43878;BME280;29815;48.184;11.268;2024-03-25T00:31:50;94790.06;;;2.94;100.00
43878;BME280;29815;48.184;11.268;2024-03-25T00:34:17;94789.56;;;2.97;100.00
43878;BME280;29815;48.184;11.268;2024-03-25T00:36:47;94787.63;;;2.93;100.00
43878;BME280;29815;48.184;11.268;2024-03-25T00:39:15;94785.34;;;2.85;100.00
43878;BME280;29815;48.184;11.268;2024-03-25T00:41:44;94798.59;;;2.96;100.00
43878;BME280;29815;48.184;11.268;2024-03-25T00:44:12;94785.22;;;2.91;100.00
43878;BME280;29815;48.184;11.268;2024-03-25T00:46:41;94802.19;;;2.90;100.00
43878;BME280;29815;48.184;11.268;2024-03-25T00:49:09;94788.44;;;2.93;100.00
43878;BME280;29815;48.184;11.268;2024-03-25T00:51:38;94793.28;;;2.96;100.00
43878;BME280;29815;48.184;11.268;2024-03-25T00:54:06;94797.53;;;2.97;100.00
43878;BME280;29815;48.184;11.268;2024-03-25T00:56:35;94788.09;;;3.06;100.00
43878;BME280;29815;48.184;11.268;2024-03-25T00:59:03;94801.00;;;2.98;100.00
43878;BME280;29815;48.184;11.268;2024-03-25T01:01:33;94788.34;;;3.05;100.00
43878;BME280;29815;48.184;11.268;2024-03-25T01:04:02;94785.31;;;2.96;100.00
43878;BME280;29815;48.184;11.268;2024-03-25T01:06:31;94777.38;;;3.01;100.00
43878;BME280;29815;48.184;11.268;2024-03-25T01:08:58;94789.22;;;3.11;100.00
43878;BME280;29815;48.184;11.268;2024-03-25T01:11:28;94786.00;;;3.09;100.00
43878;BME280;29815;48.184;11.268;2024-03-25T01:13:55;94788.09;;;3.06;100.00
43878;BME280;29815;48.184;11.268;2024-03-25T01:16:24;94782.78;;;3.06;100.00
43878;BME280;29815;48.184;11.268;2024-03-25T01:18:51;94783.34;;;3.09;100.00
43878;BME280;29815;48.184;11.268;2024-03-25T01:21:19;94785.69;;;3.05;100.00
43878;BME280;29815;48.184;11.268;2024-03-25T01:23:47;94786.72;;;3.04;100.00
43878;BME280;29815;48.184;11.268;2024-03-25T01:26:15;94784.31;;;3.02;100.00
43878;BME280;29815;48.184;11.268;2024-03-25T01:28:44;94786.91;;;3.14;100.00
43878;BME280;29815;48.184;11.268;2024-03-25T01:31:13;94793.34;;;3.01;100.00
43878;BME280;29815;48.184;11.268;2024-03-25T01:33:40;94787.22;;;3.01;100.00
43878;BME280;29815;48.184;11.268;2024-03-25T01:36:09;94793.09;;;3.03;100.00
43878;BME280;29815;48.184;11.268;2024-03-25T01:38:38;94777.66;;;3.00;100.00
43878;BME280;29815;48.184;11.268;2024-03-25T01:41:09;94775.53;;;3.02;100.00
43878;BME280;29815;48.184;11.268;2024-03-25T01:43:37;94791.75;;;3.00;100.00
43878;BME280;29815;48.184;11.268;2024-03-25T01:46:07;94782.06;;;2.94;100.00
43878;BME280;29815;48.184;11.268;2024-03-25T01:48:35;94789.25;;;2.94;100.00
43878;BME280;29815;48.184;11.268;2024-03-25T01:51:04;94781.84;;;2.96;100.00
43878;BME280;29815;48.184;11.268;2024-03-25T01:53:31;94787.78;;;2.86;100.00
43878;BME280;29815;48.184;11.268;2024-03-25T01:56:00;94767.75;;;2.95;100.00
43878;BME280;29815;48.184;11.268;2024-03-25T01:58:28;94783.22;;;2.98;100.00
43878;BME280;29815;48.184;11.268;2024-03-25T02:00:57;94775.81;;;3.00;100.00
43878;BME280;29815;48.184;11.268;2024-03-25T02:03:28;94784.16;;;2.92;100.00
43878;BME280;29815;48.184;11.268;2024-03-25T02:06:00;94787.63;;;2.93;100.00
43878;BME280;29815;48.184;11.268;2024-03-25T02:08:29;94775.28;;;2.87;100.00
43878;BME280;29815;48.184;11.268;2024-03-25T02:10:59;94772.25;;;2.95;100.00
43878;BME280;29815;48.184;11.268;2024-03-25T02:13:26;94768.88;;;2.99;100.00
43878;BME280;29815;48.184;11.268;2024-03-25T02:15:55;94772.81;;;2.97;100.00
43878;BME280;29815;48.184;11.268;2024-03-25T02:18:23;94771.91;;;2.91;100.00
43878;BME280;29815;48.184;11.268;2024-03-25T02:20:53;94767.75;;;2.95;100.00
43878;BME280;29815;48.184;11.268;2024-03-25T02:23:20;94770.50;;;3.00;100.00
43878;BME280;29815;48.184;11.268;2024-03-25T02:25:50;94775.16;;;2.93;100.00
43878;BME280;29815;48.184;11.268;2024-03-25T02:28:18;94761.38;;;2.96;100.00
43878;BME280;29815;48.184;11.268;2024-03-25T02:30:47;94770.78;;;2.87;100.00
43878;BME280;29815;48.184;11.268;2024-03-25T02:33:14;94760.97;;;2.88;100.00
43878;BME280;29815;48.184;11.268;2024-03-25T02:35:43;94764.75;;;2.92;100.00
43878;BME280;29815;48.184;11.268;2024-03-25T02:38:10;94756.78;;;2.92;100.00
43878;BME280;29815;48.184;11.268;2024-03-25T02:40:40;94752.84;;;2.94;100.00
43878;BME280;29815;48.184;11.268;2024-03-25T02:43:10;94755.00;;;2.97;100.00
43878;BME280;29815;48.184;11.268;2024-03-25T02:45:38;94754.94;;;2.92;100.00
43878;BME280;29815;48.184;11.268;2024-03-25T02:48:06;94763.72;;;2.93;100.00
43878;BME280;29815;48.184;11.268;2024-03-25T02:50:34;94762.56;;;2.89;100.00
43878;BME280;29815;48.184;11.268;2024-03-25T02:53:02;94769.13;;;2.98;100.00
43878;BME280;29815;48.184;11.268;2024-03-25T02:55:31;94769.03;;;2.93;100.00
43878;BME280;29815;48.184;11.268;2024-03-25T02:57:58;94762.66;;;2.94;100.00
43878;BME280;29815;48.184;11.268;2024-03-25T03:00:28;94761.84;;;2.93;100.00
43878;BME280;29815;48.184;11.268;2024-03-25T03:02:55;94767.03;;;3.00;100.00
43878;BME280;29815;48.184;11.268;2024-03-25T03:05:24;94765.00;;;2.90;100.00
43878;BME280;29815;48.184;11.268;2024-03-25T03:07:51;94771.03;;;2.86;100.00
43878;BME280;29815;48.184;11.268;2024-03-25T03:10:19;94765.00;;;2.90;100.00
43878;BME280;29815;48.184;11.268;2024-03-25T03:12:46;94768.59;;;2.84;100.00
43878;BME280;29815;48.184;11.268;2024-03-25T03:15:15;94776.97;;;2.76;100.00
43878;BME280;29815;48.184;11.268;2024-03-25T03:17:44;94781.47;;;2.76;100.00
43878;BME280;29815;48.184;11.268;2024-03-25T03:20:12;94778.66;;;2.82;100.00
43878;BME280;29815;48.184;11.268;2024-03-25T03:22:40;94775.34;;;2.75;100.00
43878;BME280;29815;48.184;11.268;2024-03-25T03:25:08;94771.59;;;2.71;100.00
43878;BME280;29815;48.184;11.268;2024-03-25T03:27:36;94774.16;;;2.66;100.00
43878;BME280;29815;48.184;11.268;2024-03-25T03:30:05;94784.69;;;2.61;100.00
43878;BME280;29815;48.184;11.268;2024-03-25T03:32:33;94775.25;;;2.53;100.00
43878;BME280;29815;48.184;11.268;2024-03-25T03:35:03;94770.81;;;2.42;100.00
43878;BME280;29815;48.184;11.268;2024-03-25T03:37:31;94777.97;;;2.42;100.00
43878;BME280;29815;48.184;11.268;2024-03-25T03:39:59;94778.09;;;2.35;100.00
43878;BME280;29815;48.184;11.268;2024-03-25T03:42:26;94783.06;;;2.43;100.00
43878;BME280;29815;48.184;11.268;2024-03-25T03:44:55;94776.16;;;2.30;100.00
43878;BME280;29815;48.184;11.268;2024-03-25T03:47:22;94780.66;;;2.30;100.00
43878;BME280;29815;48.184;11.268;2024-03-25T03:49:50;94779.06;;;2.29;100.00
43878;BME280;29815;48.184;11.268;2024-03-25T03:52:19;94780.47;;;2.20;100.00
43878;BME280;29815;48.184;11.268;2024-03-25T03:54:47;94777.97;;;2.13;100.00
43878;BME280;29815;48.184;11.268;2024-03-25T03:57:15;94774.53;;;2.01;100.00
43878;BME280;29815;48.184;11.268;2024-03-25T03:59:43;94774.91;;;1.93;100.00
43878;BME280;29815;48.184;11.268;2024-03-25T04:02:11;94786.00;;;1.90;100.00
43878;BME280;29815;48.184;11.268;2024-03-25T04:04:40;94784.22;;;1.95;100.00
43878;BME280;29815;48.184;11.268;2024-03-25T04:07:07;94773.03;;;1.93;100.00
43878;BME280;29815;48.184;11.268;2024-03-25T04:09:37;94782.03;;;1.92;100.00
43878;BME280;29815;48.184;11.268;2024-03-25T04:12:04;94783.19;;;1.96;100.00
43878;BME280;29815;48.184;11.268;2024-03-25T04:14:34;94788.16;;;1.93;100.00
43878;BME280;29815;48.184;11.268;2024-03-25T04:17:01;94786.53;;;1.92;100.00
43878;BME280;29815;48.184;11.268;2024-03-25T04:19:29;94787.63;;;1.91;100.00
43878;BME280;29815;48.184;11.268;2024-03-25T04:21:57;94791.53;;;1.88;100.00
43878;BME280;29815;48.184;11.268;2024-03-25T04:24:26;94794.66;;;1.85;100.00
43878;BME280;29815;48.184;11.268;2024-03-25T04:26:55;94796.28;;;1.75;100.00
43878;BME280;29815;48.184;11.268;2024-03-25T04:29:24;94801.81;;;1.73;100.00
43878;BME280;29815;48.184;11.268;2024-03-25T04:31:51;94785.94;;;1.61;100.00
43878;BME280;29815;48.184;11.268;2024-03-25T04:34:19;94795.41;;;1.57;100.00
43878;BME280;29815;48.184;11.268;2024-03-25T04:36:47;94803.78;;;1.66;100.00
43878;BME280;29815;48.184;11.268;2024-03-25T04:39:15;94808.53;;;1.64;100.00
43878;BME280;29815;48.184;11.268;2024-03-25T04:41:43;94791.09;;;1.68;100.00
43878;BME280;29815;48.184;11.268;2024-03-25T04:44:12;94801.13;;;1.66;100.00
43878;BME280;29815;48.184;11.268;2024-03-25T04:46:39;94807.47;;;1.65;100.00
43878;BME280;29815;48.184;11.268;2024-03-25T04:49:07;94806.13;;;1.62;100.00
43878;BME280;29815;48.184;11.268;2024-03-25T04:51:34;94801.84;;;1.61;100.00
43878;BME280;29815;48.184;11.268;2024-03-25T04:54:02;94808.44;;;1.59;100.00
43878;BME280;29815;48.184;11.268;2024-03-25T04:56:29;94806.00;;;1.57;100.00
43878;BME280;29815;48.184;11.268;2024-03-25T04:58:57;94816.25;;;1.54;100.00
43878;BME280;29815;48.184;11.268;2024-03-25T05:01:26;94812.22;;;1.51;100.00
43878;BME280;29815;48.184;11.268;2024-03-25T05:03:53;94821.56;;;1.54;100.00
43878;BME280;29815;48.184;11.268;2024-03-25T05:06:21;94813.16;;;1.57;100.00
43878;BME280;29815;48.184;11.268;2024-03-25T05:08:48;94825.47;;;1.51;100.00
43878;BME280;29815;48.184;11.268;2024-03-25T05:11:15;94821.78;;;1.52;100.00
43878;BME280;29815;48.184;11.268;2024-03-25T05:13:43;94824.69;;;1.51;100.00
43878;BME280;29815;48.184;11.268;2024-03-25T05:16:10;94817.53;;;1.51;100.00
43878;BME280;29815;48.184;11.268;2024-03-25T05:18:39;94818.69;;;1.55;100.00
43878;BME280;29815;48.184;11.268;2024-03-25T05:21:06;94828.72;;;1.53;100.00
43878;BME280;29815;48.184;11.268;2024-03-25T05:23:34;94822.59;;;1.53;100.00
43878;BME280;29815;48.184;11.268;2024-03-25T05:26:01;94829.88;;;1.57;100.00
43878;BME280;29815;48.184;11.268;2024-03-25T05:28:28;94833.69;;;1.61;100.00
43878;BME280;29815;48.184;11.268;2024-03-25T05:30:56;94830.31;;;1.66;100.00
43878;BME280;29815;48.184;11.268;2024-03-25T05:33:23;94841.50;;;1.68;100.00
43878;BME280;29815;48.184;11.268;2024-03-25T05:35:52;94838.19;;;1.61;100.00
43878;BME280;29815;48.184;11.268;2024-03-25T05:38:20;94838.41;;;1.59;100.00
43878;BME280;29815;48.184;11.268;2024-03-25T05:40:47;94835.97;;;1.58;100.00
43878;BME280;29815;48.184;11.268;2024-03-25T05:43:14;94838.97;;;1.61;100.00
43878;BME280;29815;48.184;11.268;2024-03-25T05:45:50;94843.91;;;1.69;100.00
43878;BME280;29815;48.184;11.268;2024-03-25T05:48:18;94841.03;;;1.71;100.00
43878;BME280;29815;48.184;11.268;2024-03-25T05:50:46;94850.84;;;1.82;100.00
43878;BME280;29815;48.184;11.268;2024-03-25T05:53:15;94843.47;;;1.84;100.00
43878;BME280;29815;48.184;11.268;2024-03-25T05:55:42;94845.75;;;1.81;100.00
43878;BME280;29815;48.184;11.268;2024-03-25T05:58:09;94853.25;;;1.84;100.00
43878;BME280;29815;48.184;11.268;2024-03-25T06:00:37;94848.19;;;1.82;100.00
43878;BME280;29815;48.184;11.268;2024-03-25T06:03:05;94844.94;;;1.92;100.00
43878;BME280;29815;48.184;11.268;2024-03-25T06:05:32;94856.34;;;1.92;100.00
43878;BME280;29815;48.184;11.268;2024-03-25T06:07:59;94848.38;;;2.04;100.00
43878;BME280;29815;48.184;11.268;2024-03-25T06:10:28;94851.03;;;2.16;100.00
43878;BME280;29815;48.184;11.268;2024-03-25T06:12:56;94841.22;;;2.16;100.00
43878;BME280;29815;48.184;11.268;2024-03-25T06:15:23;94851.78;;;2.28;100.00
43878;BME280;29815;48.184;11.268;2024-03-25T06:17:50;94854.66;;;2.38;100.00
43878;BME280;29815;48.184;11.268;2024-03-25T06:20:18;94842.66;;;2.35;100.00
43878;BME280;29815;48.184;11.268;2024-03-25T06:22:45;94860.72;;;2.50;100.00
43878;BME280;29815;48.184;11.268;2024-03-25T06:25:13;94851.63;;;2.46;100.00
43878;BME280;29815;48.184;11.268;2024-03-25T06:27:41;94853.09;;;2.54;100.00
43878;BME280;29815;48.184;11.268;2024-03-25T06:30:10;94853.88;;;2.54;100.00
43878;BME280;29815;48.184;11.268;2024-03-25T06:32:56;94856.50;;;2.66;100.00
43878;BME280;29815;48.184;11.268;2024-03-25T06:35:43;94856.84;;;2.69;100.00
43878;BME280;29815;48.184;11.268;2024-03-25T06:38:10;94856.09;;;2.74;100.00
43878;BME280;29815;48.184;11.268;2024-03-25T06:40:38;94857.78;;;2.92;100.00
43878;BME280;29815;48.184;11.268;2024-03-25T06:43:07;94857.69;;;3.03;100.00
43878;BME280;29815;48.184;11.268;2024-03-25T06:45:34;94852.41;;;3.20;100.00
43878;BME280;29815;48.184;11.268;2024-03-25T06:48:02;94854.13;;;3.26;100.00
43878;BME280;29815;48.184;11.268;2024-03-25T06:50:31;94860.25;;;3.27;100.00
43878;BME280;29815;48.184;11.268;2024-03-25T06:52:58;94861.66;;;3.34;100.00
43878;BME280;29815;48.184;11.268;2024-03-25T06:55:25;94862.81;;;3.38;100.00
43878;BME280;29815;48.184;11.268;2024-03-25T06:57:53;94855.00;;;3.49;100.00
43878;BME280;29815;48.184;11.268;2024-03-25T07:00:22;94841.09;;;3.63;100.00
43878;BME280;29815;48.184;11.268;2024-03-25T07:02:50;94840.94;;;3.70;100.00
43878;BME280;29815;48.184;11.268;2024-03-25T07:05:17;94847.41;;;3.74;100.00
43878;BME280;29815;48.184;11.268;2024-03-25T07:07:44;94845.19;;;3.88;100.00
43878;BME280;29815;48.184;11.268;2024-03-25T07:10:12;94847.19;;;3.97;100.00
43878;BME280;29815;48.184;11.268;2024-03-25T07:12:39;94838.47;;;4.02;100.00
43878;BME280;29815;48.184;11.268;2024-03-25T07:15:07;94840.44;;;4.12;100.00
43878;BME280;29815;48.184;11.268;2024-03-25T07:17:37;94845.66;;;4.23;100.00
43878;BME280;29815;48.184;11.268;2024-03-25T07:20:05;94844.69;;;4.29;100.00
43878;BME280;29815;48.184;11.268;2024-03-25T07:22:34;94858.09;;;4.39;100.00
43878;BME280;29815;48.184;11.268;2024-03-25T07:25:01;94848.00;;;4.41;100.00
43878;BME280;29815;48.184;11.268;2024-03-25T07:27:29;94854.63;;;4.61;100.00
43878;BME280;29815;48.184;11.268;2024-03-25T07:29:57;94846.16;;;4.64;100.00
43878;BME280;29815;48.184;11.268;2024-03-25T07:32:25;94844.81;;;4.66;100.00
43878;BME280;29815;48.184;11.268;2024-03-25T07:34:53;94839.78;;;4.65;100.00
43878;BME280;29815;48.184;11.268;2024-03-25T07:37:21;94837.63;;;4.89;100.00
43878;BME280;29815;48.184;11.268;2024-03-25T07:39:48;94840.59;;;4.97;100.00
43878;BME280;29815;48.184;11.268;2024-03-25T07:42:16;94843.38;;;5.07;100.00
43878;BME280;29815;48.184;11.268;2024-03-25T07:44:43;94847.22;;;5.22;100.00
43878;BME280;29815;48.184;11.268;2024-03-25T07:47:11;94847.34;;;5.32;100.00
43878;BME280;29815;48.184;11.268;2024-03-25T07:49:38;94854.06;;;5.39;100.00
43878;BME280;29815;48.184;11.268;2024-03-25T07:52:07;94851.16;;;5.41;100.00
43878;BME280;29815;48.184;11.268;2024-03-25T07:54:34;94845.88;;;5.51;100.00
43878;BME280;29815;48.184;11.268;2024-03-25T07:57:03;94850.16;;;5.52;100.00
43878;BME280;29815;48.184;11.268;2024-03-25T07:59:31;94858.72;;;5.54;100.00
43878;BME280;29815;48.184;11.268;2024-03-25T08:01:58;94849.91;;;5.54;100.00
43878;BME280;29815;48.184;11.268;2024-03-25T08:04:25;94852.28;;;5.50;100.00
43878;BME280;29815;48.184;11.268;2024-03-25T08:06:53;94837.97;;;5.61;100.00
43878;BME280;29815;48.184;11.268;2024-03-25T08:09:22;94848.13;;;5.64;100.00
43878;BME280;29815;48.184;11.268;2024-03-25T08:11:49;94841.53;;;5.72;100.00
43878;BME280;29815;48.184;11.268;2024-03-25T08:14:17;94843.38;;;5.71;100.00
43878;BME280;29815;48.184;11.268;2024-03-25T08:16:44;94849.56;;;5.82;100.00
43878;BME280;29815;48.184;11.268;2024-03-25T08:19:11;94838.13;;;5.87;100.00
43878;BME280;29815;48.184;11.268;2024-03-25T08:21:39;94843.06;;;6.05;100.00
43878;BME280;29815;48.184;11.268;2024-03-25T08:24:06;94840.47;;;6.15;100.00
43878;BME280;29815;48.184;11.268;2024-03-25T08:26:35;94836.00;;;6.26;100.00
43878;BME280;29815;48.184;11.268;2024-03-25T08:29:03;94840.00;;;6.33;100.00
43878;BME280;29815;48.184;11.268;2024-03-25T08:31:30;94833.09;;;6.37;100.00
43878;BME280;29815;48.184;11.268;2024-03-25T08:33:58;94835.25;;;6.40;100.00
43878;BME280;29815;48.184;11.268;2024-03-25T08:36:25;94834.44;;;6.40;100.00
43878;BME280;29815;48.184;11.268;2024-03-25T08:38:53;94834.69;;;6.38;100.00
43878;BME280;29815;48.184;11.268;2024-03-25T08:41:20;94831.84;;;6.55;100.00
43878;BME280;29815;48.184;11.268;2024-03-25T08:43:49;94834.75;;;6.59;100.00
43878;BME280;29815;48.184;11.268;2024-03-25T08:46:16;94840.66;;;6.61;100.00
43878;BME280;29815;48.184;11.268;2024-03-25T08:48:44;94836.63;;;6.58;100.00
43878;BME280;29815;48.184;11.268;2024-03-25T08:51:11;94830.28;;;6.74;100.00
43878;BME280;29815;48.184;11.268;2024-03-25T08:53:38;94829.75;;;6.77;100.00
43878;BME280;29815;48.184;11.268;2024-03-25T08:56:06;94829.50;;;6.89;100.00
43878;BME280;29815;48.184;11.268;2024-03-25T08:58:33;94822.84;;;6.97;100.00
43878;BME280;29815;48.184;11.268;2024-03-25T09:01:02;94824.69;;;6.86;100.00
43878;BME280;29815;48.184;11.268;2024-03-25T09:03:30;94822.31;;;6.95;100.00
43878;BME280;29815;48.184;11.268;2024-03-25T09:05:57;94810.56;;;7.06;100.00
43878;BME280;29815;48.184;11.268;2024-03-25T09:08:24;94817.00;;;7.10;100.00
43878;BME280;29815;48.184;11.268;2024-03-25T09:10:52;94804.16;;;7.22;100.00
43878;BME280;29815;48.184;11.268;2024-03-25T09:13:31;94809.78;;;7.31;100.00
43878;BME280;29815;48.184;11.268;2024-03-25T09:15:59;94807.06;;;7.16;94.18
43878;BME280;29815;48.184;11.268;2024-03-25T09:18:27;94801.19;;;6.98;94.40
43878;BME280;29815;48.184;11.268;2024-03-25T09:20:55;94801.69;;;6.90;96.17
43878;BME280;29815;48.184;11.268;2024-03-25T09:23:22;94802.22;;;6.82;96.01
43878;BME280;29815;48.184;11.268;2024-03-25T09:25:53;94799.00;;;6.80;97.90
43878;BME280;29815;48.184;11.268;2024-03-25T09:28:20;94804.59;;;6.73;95.76
43878;BME280;29815;48.184;11.268;2024-03-25T09:30:48;94801.09;;;6.63;85.03
43878;BME280;29815;48.184;11.268;2024-03-25T09:33:15;94798.69;;;6.61;87.44
43878;BME280;29815;48.184;11.268;2024-03-25T09:35:44;94795.81;;;6.78;98.60
43878;BME280;29815;48.184;11.268;2024-03-25T09:38:12;94789.66;;;6.88;92.91
43878;BME280;29815;48.184;11.268;2024-03-25T09:40:40;94790.44;;;6.88;79.21
43878;BME280;29815;48.184;11.268;2024-03-25T09:43:12;94790.19;;;6.85;91.24
43878;BME280;29815;48.184;11.268;2024-03-25T09:45:42;94787.53;;;7.00;83.86
43878;BME280;29815;48.184;11.268;2024-03-25T09:48:11;94781.94;;;7.01;74.27
43878;BME280;29815;48.184;11.268;2024-03-25T09:50:39;94779.78;;;7.03;76.80
43878;BME280;29815;48.184;11.268;2024-03-25T09:53:08;94774.97;;;7.05;82.54
43878;BME280;29815;48.184;11.268;2024-03-25T09:55:36;94778.47;;;7.26;88.56
43878;BME280;29815;48.184;11.268;2024-03-25T09:58:04;94770.16;;;7.38;81.86
43878;BME280;29815;48.184;11.268;2024-03-25T10:00:32;94770.16;;;7.53;81.14
43878;BME280;29815;48.184;11.268;2024-03-25T10:03:00;94765.31;;;7.55;74.32
43878;BME280;29815;48.184;11.268;2024-03-25T10:05:28;94765.59;;;7.54;74.25
43878;BME280;29815;48.184;11.268;2024-03-25T10:07:55;94763.41;;;7.71;71.05
43878;BME280;29815;48.184;11.268;2024-03-25T10:10:24;94760.22;;;7.64;70.45
43878;BME280;29815;48.184;11.268;2024-03-25T10:12:54;94749.53;;;7.54;68.74
43878;BME280;29815;48.184;11.268;2024-03-25T10:15:22;94748.69;;;7.73;70.74
43878;BME280;29815;48.184;11.268;2024-03-25T10:17:49;94747.59;;;7.79;71.05
43878;BME280;29815;48.184;11.268;2024-03-25T10:20:17;94733.91;;;7.91;67.85
43878;BME280;29815;48.184;11.268;2024-03-25T10:22:45;94741.09;;;8.01;68.62
43878;BME280;29815;48.184;11.268;2024-03-25T10:25:20;94739.66;;;8.24;65.16
43878;BME280;29815;48.184;11.268;2024-03-25T10:27:57;94732.16;;;8.21;63.92
43878;BME280;29815;48.184;11.268;2024-03-25T10:30:25;94734.09;;;8.10;63.33
43878;BME280;29815;48.184;11.268;2024-03-25T10:33:00;94730.53;;;8.40;67.86
43878;BME280;29815;48.184;11.268;2024-03-25T10:35:28;94726.78;;;8.31;62.68
43878;BME280;29815;48.184;11.268;2024-03-25T10:37:59;94717.41;;;8.33;64.84
43878;BME280;29815;48.184;11.268;2024-03-25T10:40:27;94712.06;;;8.23;62.05
43878;BME280;29815;48.184;11.268;2024-03-25T10:43:00;94712.00;;;8.43;62.74
43878;BME280;29815;48.184;11.268;2024-03-25T10:45:29;94720.59;;;8.45;59.83
43878;BME280;29815;48.184;11.268;2024-03-25T10:47:58;94703.16;;;8.43;59.13
43878;BME280;29815;48.184;11.268;2024-03-25T10:50:28;94709.00;;;8.50;58.29
43878;BME280;29815;48.184;11.268;2024-03-25T10:52:57;94697.69;;;8.58;56.62
43878;BME280;29815;48.184;11.268;2024-03-25T10:55:25;94690.34;;;8.35;57.25
43878;BME280;29815;48.184;11.268;2024-03-25T10:57:54;94689.25;;;8.26;59.15
43878;BME280;29815;48.184;11.268;2024-03-25T11:00:24;94692.22;;;8.24;60.49
43878;BME280;29815;48.184;11.268;2024-03-25T11:02:52;94694.34;;;8.27;62.26
43878;BME280;29815;48.184;11.268;2024-03-25T11:05:19;94687.41;;;8.21;59.54
43878;BME280;29815;48.184;11.268;2024-03-25T11:07:47;94688.44;;;8.40;58.29
43878;BME280;29815;48.184;11.268;2024-03-25T11:10:14;94687.81;;;8.48;58.06
43878;BME280;29815;48.184;11.268;2024-03-25T11:12:42;94685.56;;;8.71;63.19
43878;BME280;29815;48.184;11.268;2024-03-25T11:15:10;94675.09;;;8.69;60.21
43878;BME280;29815;48.184;11.268;2024-03-25T11:17:48;94672.59;;;8.78;59.02
43878;BME280;29815;48.184;11.268;2024-03-25T11:20:16;94659.78;;;9.04;63.03
43878;BME280;29815;48.184;11.268;2024-03-25T11:22:50;94664.34;;;9.03;57.80
43878;BME280;29815;48.184;11.268;2024-03-25T11:25:20;94654.34;;;9.14;59.63
43878;BME280;29815;48.184;11.268;2024-03-25T11:27:48;94647.09;;;9.14;59.01
43878;BME280;29815;48.184;11.268;2024-03-25T11:30:15;94629.63;;;9.17;55.92
43878;BME280;29815;48.184;11.268;2024-03-25T11:32:45;94621.56;;;9.17;60.54
43878;BME280;29815;48.184;11.268;2024-03-25T11:35:13;94621.91;;;9.34;56.81
43878;BME280;29815;48.184;11.268;2024-03-25T11:37:41;94628.50;;;9.47;57.42
43878;BME280;29815;48.184;11.268;2024-03-25T11:40:10;94623.31;;;9.56;55.31
43878;BME280;29815;48.184;11.268;2024-03-25T11:42:39;94622.91;;;9.67;54.51
43878;BME280;29815;48.184;11.268;2024-03-25T11:45:09;94625.53;;;9.72;57.08
43878;BME280;29815;48.184;11.268;2024-03-25T11:47:42;94612.00;;;10.01;58.08
43878;BME280;29815;48.184;11.268;2024-03-25T11:50:13;94603.22;;;9.96;52.86
43878;BME280;29815;48.184;11.268;2024-03-25T11:52:41;94608.88;;;9.94;53.07
43878;BME280;29815;48.184;11.268;2024-03-25T11:55:09;94601.78;;;10.03;55.04
43878;BME280;29815;48.184;11.268;2024-03-25T11:57:37;94595.75;;;10.11;54.47
43878;BME280;29815;48.184;11.268;2024-03-25T12:00:08;94597.44;;;10.26;54.77
43878;BME280;29815;48.184;11.268;2024-03-25T12:02:42;94592.41;;;10.57;52.80
43878;BME280;29815;48.184;11.268;2024-03-25T12:05:12;94584.00;;;10.77;53.17
43878;BME280;29815;48.184;11.268;2024-03-25T12:07:39;94578.50;;;11.01;53.41
43878;BME280;29815;48.184;11.268;2024-03-25T12:10:07;94577.94;;;11.18;53.56
43878;BME280;29815;48.184;11.268;2024-03-25T12:12:55;94573.19;;;11.42;54.44
43878;BME280;29815;48.184;11.268;2024-03-25T12:15:22;94565.47;;;11.63;52.48
43878;BME280;29815;48.184;11.268;2024-03-25T12:17:50;94564.28;;;11.83;51.32
43878;BME280;29815;48.184;11.268;2024-03-25T12:20:20;94551.41;;;11.94;54.47
43878;BME280;29815;48.184;11.268;2024-03-25T12:22:48;94567.59;;;11.80;49.33
43878;BME280;29815;48.184;11.268;2024-03-25T12:25:15;94567.69;;;11.75;49.25
43878;BME280;29815;48.184;11.268;2024-03-25T12:27:45;94549.81;;;11.79;48.29
43878;BME280;29815;48.184;11.268;2024-03-25T12:30:14;94546.94;;;11.75;48.89
43878;BME280;29815;48.184;11.268;2024-03-25T12:32:42;94544.72;;;11.77;49.41
43878;BME280;29815;48.184;11.268;2024-03-25T12:35:11;94546.81;;;11.80;47.09
43878;BME280;29815;48.184;11.268;2024-03-25T12:37:41;94535.03;;;11.76;46.73
43878;BME280;29815;48.184;11.268;2024-03-25T12:40:10;94535.44;;;11.97;50.90
43878;BME280;29815;48.184;11.268;2024-03-25T12:42:38;94525.38;;;12.25;48.94
43878;BME280;29815;48.184;11.268;2024-03-25T12:45:06;94527.84;;;12.58;46.77
43878;BME280;29815;48.184;11.268;2024-03-25T12:47:34;94517.31;;;12.78;46.92
43878;BME280;29815;48.184;11.268;2024-03-25T12:50:01;94513.91;;;12.95;46.85
43878;BME280;29815;48.184;11.268;2024-03-25T12:52:29;94514.47;;;13.14;46.79
43878;BME280;29815;48.184;11.268;2024-03-25T12:54:57;94508.28;;;13.36;45.14
43878;BME280;29815;48.184;11.268;2024-03-25T12:57:25;94503.53;;;13.50;46.10
43878;BME280;29815;48.184;11.268;2024-03-25T12:59:52;94496.47;;;13.89;50.20